Time;durP1;ratioP1;P1;durP2;ratioP2;P2;SDS_P1;SDS_P2;PMS_P1;PMS_P2;Temp;Humidity;BMP_temperature;BMP_pressure;BME280_temperature;BME280_humidity;BME280_pressure;Samples;Min_cycle;Max_cycle;Signal;HPM_P1;HPM_P2
2022/01/08 00:00:14;;;;;;;24.90;6.38;;;7.50;99.90;;;;;;5017526;28;20049;-76
2022/01/08 00:02:41;;;;;;;21.35;4.72;;;7.40;99.90;;;;;;5017061;28;20038;-75
2022/01/08 00:05:08;;;;;;;18.52;5.10;;;7.50;99.90;;;;;;5015992;28;20026;-77
2022/01/08 00:07:33;;;;;;;13.70;4.70;;;7.50;99.90;;;;;;5015567;28;20022;-76
2022/01/08 00:09:59;;;;;;;11.10;4.05;;;7.50;99.90;;;;;;5016804;28;20053;-76
2022/01/08 00:12:25;;;;;;;10.98;4.47;;;7.50;99.90;;;;;;5017081;28;20041;-77
2022/01/08 00:14:51;;;;;;;16.38;4.97;;;7.50;99.90;;;;;;5017221;28;20117;-76
2022/01/08 00:17:16;;;;;;;20.08;4.65;;;7.50;99.90;;;;;;5015743;28;20030;-76
2022/01/08 00:19:42;;;;;;;19.23;4.50;;;7.50;99.90;;;;;;5015789;28;20030;-77
2022/01/08 00:22:08;;;;;;;25.08;6.97;;;7.50;99.90;;;;;;5017061;28;20033;-77
2022/01/08 00:24:34;;;;;;;10.48;4.28;;;7.50;99.90;;;;;;5015634;28;20024;-77
2022/01/08 00:27:00;;;;;;;13.45;4.55;;;7.60;99.90;;;;;;5016879;28;20032;-77
2022/01/08 00:29:26;;;;;;;17.13;4.68;;;7.60;99.90;;;;;;5017113;28;20074;-76
2022/01/08 00:31:52;;;;;;;12.30;4.45;;;7.60;99.90;;;;;;5016893;28;20547;-76
2022/01/08 00:34:17;;;;;;;17.50;6.20;;;7.70;99.90;;;;;;5017086;28;20022;-77
2022/01/08 00:36:43;;;;;;;16.13;5.75;;;7.70;99.90;;;;;;5016783;28;20100;-76
2022/01/08 00:39:09;;;;;;;16.30;4.35;;;7.70;99.90;;;;;;5015608;28;20029;-76
2022/01/08 00:41:34;;;;;;;6.90;4.13;;;7.70;99.90;;;;;;5015197;28;20166;-77
2022/01/08 00:44:00;;;;;;;18.92;4.82;;;7.70;99.90;;;;;;5017016;28;20549;-76
2022/01/08 00:46:26;;;;;;;14.57;4.10;;;7.80;99.90;;;;;;5015387;28;20088;-76
2022/01/08 00:48:52;;;;;;;17.15;4.82;;;7.80;99.90;;;;;;5016208;28;20022;-75
2022/01/08 00:51:17;;;;;;;18.33;5.18;;;7.80;99.90;;;;;;5019179;28;20109;-77
2022/01/08 00:53:43;;;;;;;20.17;5.00;;;7.80;99.90;;;;;;5020525;28;20422;-77
2022/01/08 00:56:09;;;;;;;16.52;4.35;;;7.80;99.90;;;;;;5020034;28;20034;-77
2022/01/08 00:58:34;;;;;;;19.83;5.60;;;7.80;99.90;;;;;;5020289;28;20029;-77
2022/01/08 01:01:00;;;;;;;9.80;3.58;;;7.80;99.90;;;;;;5018885;28;20029;-77
2022/01/08 01:03:26;;;;;;;13.75;4.63;;;7.80;99.90;;;;;;5020145;28;20026;-76
2022/01/08 01:05:52;;;;;;;15.82;5.35;;;7.80;99.90;;;;;;5018693;28;20036;-77
2022/01/08 01:08:17;;;;;;;24.73;5.15;;;7.80;99.90;;;;;;5020036;28;20037;-77
2022/01/08 01:10:43;;;;;;;22.67;4.82;;;7.90;99.90;;;;;;5018435;28;20036;-77
2022/01/08 01:13:09;;;;;;;15.13;4.47;;;7.90;99.90;;;;;;5020048;28;20026;-77
2022/01/08 01:15:35;;;;;;;21.02;6.60;;;7.90;99.90;;;;;;5019857;28;20413;-76
2022/01/08 01:18:00;;;;;;;18.10;4.40;;;8.00;99.90;;;;;;5018699;28;20029;-77
2022/01/08 01:20:26;;;;;;;25.00;4.95;;;7.90;99.90;;;;;;5018451;28;20516;-77
2022/01/08 01:25:48;;;;;;;24.58;7.07;;;7.80;99.90;;;;;;5020734;28;20069;-76
2022/01/08 01:47:03;;;;;;;24.75;6.72;;;7.90;99.90;;;;;;5018611;28;20084;-77
2022/01/08 01:49:44;;;;;;;15.48;4.78;;;8.00;99.90;;;;;;5019234;28;20101;-76
2022/01/08 01:52:11;;;;;;;;;;;8.00;99.90;;;;;;5018502;28;20084;-77
2022/01/08 01:54:37;;;;;;;23.70;5.13;;;8.00;99.90;;;;;;5067259;28;19905;-77
2022/01/08 01:57:06;;;;;;;18.25;6.05;;;8.00;99.90;;;;;;5039217;28;20049;-77
2022/01/08 01:59:33;;;;;;;22.48;5.63;;;8.10;99.90;;;;;;5038953;28;20056;-76
2022/01/08 02:02:00;;;;;;;16.75;5.03;;;8.00;99.90;;;;;;5037972;28;20078;-76
2022/01/08 02:04:26;;;;;;;10.40;4.13;;;8.10;99.90;;;;;;5038747;28;20520;-77
2022/01/08 02:06:53;;;;;;;20.65;4.47;;;8.10;99.90;;;;;;5038875;28;20028;-76
2022/01/08 02:09:19;;;;;;;25.70;5.15;;;8.10;99.90;;;;;;5038669;28;20050;-77
2022/01/08 02:12:05;;;;;;;23.02;5.47;;;8.10;99.90;;;;;;5038466;28;20032;-76
2022/01/08 02:14:34;;;;;;;18.10;4.55;;;8.10;99.90;;;;;;5038803;28;20385;-76
2022/01/08 02:17:00;;;;;;;16.38;4.75;;;8.10;99.90;;;;;;5038613;28;20014;-77
2022/01/08 02:19:26;;;;;;;22.77;5.35;;;8.10;99.90;;;;;;5030040;28;20022;-77
2022/01/08 02:21:55;;;;;;;16.80;5.15;;;8.10;99.90;;;;;;5018655;28;20024;-78
2022/01/08 02:24:22;;;;;;;23.95;5.13;;;8.00;99.90;;;;;;5018840;28;20022;-77
2022/01/08 02:26:48;;;;;;;25.45;7.70;;;8.00;99.90;;;;;;5018165;28;20026;-77
2022/01/08 02:29:16;;;;;;;15.15;4.15;;;7.90;99.90;;;;;;5018880;28;20059;-78
2022/01/08 02:32:06;;;;;;;20.55;5.70;;;7.90;99.90;;;;;;5018512;28;20022;-78
2022/01/08 02:34:32;;;;;;;16.42;5.05;;;7.90;99.90;;;;;;5017210;28;20026;-78
2022/01/08 02:36:59;;;;;;;22.02;5.88;;;7.70;99.90;;;;;;5018600;28;20017;-77
2022/01/08 02:39:25;;;;;;;16.25;4.95;;;7.60;99.90;;;;;;5018454;28;20030;-77
2022/01/08 02:41:56;;;;;;;20.83;4.65;;;7.60;99.90;;;;;;5016690;28;20018;-77
2022/01/08 02:44:23;;;;;;;22.60;5.22;;;7.60;99.90;;;;;;5017222;28;20030;-77
2022/01/08 02:46:49;;;;;;;21.55;4.82;;;7.60;99.90;;;;;;5016797;28;20032;-76
2022/01/08 02:49:15;;;;;;;16.67;4.88;;;7.60;99.90;;;;;;5016967;28;20034;-77
2022/01/08 02:51:41;;;;;;;5.78;3.30;;;7.50;99.90;;;;;;5018114;28;20029;-77
2022/01/08 02:54:09;;;;;;;16.58;4.75;;;7.50;99.90;;;;;;5018203;28;20033;-77
2022/01/08 02:56:42;;;;;;;17.52;5.22;;;7.50;99.90;;;;;;5017648;28;20446;-76
2022/01/08 02:59:08;;;;;;;15.40;4.95;;;7.50;99.90;;;;;;5018074;28;20030;-76
2022/01/08 03:01:35;;;;;;;24.98;7.55;;;7.50;99.90;;;;;;5018206;28;20029;-77
2022/01/08 03:04:01;;;;;;;23.13;5.50;;;7.50;99.90;;;;;;5017916;28;20088;-78
2022/01/08 03:06:27;;;;;;;23.83;5.43;;;7.50;99.90;;;;;;5018290;28;20024;-77
2022/01/08 03:08:53;;;;;;;21.25;5.40;;;7.40;99.90;;;;;;5017743;28;20129;-78
2022/01/08 03:11:19;;;;;;;21.13;6.85;;;7.50;99.90;;;;;;5017775;28;20037;-77
2022/01/08 03:13:44;;;;;;;11.88;4.20;;;7.50;99.90;;;;;;5016237;28;20025;-77
2022/01/08 03:16:10;;;;;;;23.98;5.35;;;7.50;99.90;;;;;;5017956;28;20478;-77
2022/01/08 03:18:37;;;;;;;16.75;4.70;;;7.50;99.90;;;;;;5017696;28;20037;-77
2022/01/08 03:21:14;;;;;;;20.52;5.05;;;7.50;99.90;;;;;;5017815;28;20030;-77
2022/01/08 03:23:48;;;;;;;23.48;7.70;;;7.50;99.90;;;;;;5013057;28;20030;-77
2022/01/08 03:26:16;;;;;;;22.17;4.88;;;7.40;99.90;;;;;;5016039;28;20025;-77
2022/01/08 03:28:42;;;;;;;21.55;5.43;;;7.50;99.90;;;;;;5016080;28;20407;-77
2022/01/08 03:31:08;;;;;;;28.45;5.88;;;7.50;99.90;;;;;;5016434;28;20033;-76
2022/01/08 03:33:33;;;;;;;15.57;4.90;;;7.50;99.90;;;;;;5016137;28;20021;-76
2022/01/08 03:35:59;;;;;;;9.77;3.83;;;7.50;99.90;;;;;;5016190;28;20119;-77
2022/01/08 03:38:25;;;;;;;14.85;5.90;;;7.50;99.90;;;;;;5017633;28;20037;-76
2022/01/08 03:40:51;;;;;;;16.45;4.43;;;7.40;99.90;;;;;;5017439;28;20026;-76
2022/01/08 03:43:16;;;;;;;16.23;5.32;;;7.40;99.90;;;;;;5017365;28;20028;-76
2022/01/08 03:45:42;;;;;;;27.33;7.85;;;7.40;99.90;;;;;;5017438;28;20034;-76
2022/01/08 03:48:25;;;;;;;19.33;4.78;;;7.40;99.90;;;;;;5017572;28;20096;-76
2022/01/08 03:50:51;;;;;;;18.15;6.38;;;7.40;99.90;;;;;;5016192;28;20022;-77
2022/01/08 03:53:17;;;;;;;18.48;5.00;;;7.50;99.90;;;;;;5016151;28;20409;-76
2022/01/08 03:55:43;;;;;;;23.77;6.18;;;7.50;99.90;;;;;;5017177;28;20090;-76
2022/01/08 03:58:08;;;;;;;19.15;5.13;;;7.40;99.90;;;;;;5016183;28;20375;-76
2022/01/08 04:00:35;;;;;;;15.55;4.78;;;7.40;99.90;;;;;;5017328;28;20057;-76
2022/01/08 04:03:00;;;;;;;23.70;5.47;;;7.50;99.90;;;;;;5017412;28;20112;-76
2022/01/08 04:05:26;;;;;;;17.65;4.65;;;7.50;99.90;;;;;;5017169;28;20065;-77
2022/01/08 04:07:52;;;;;;;21.00;5.93;;;7.40;99.90;;;;;;5015666;28;20018;-77
2022/01/08 04:10:18;;;;;;;18.63;5.93;;;7.50;99.90;;;;;;5017008;28;20022;-76
2022/01/08 04:12:48;;;;;;;22.52;5.68;;;7.50;99.90;;;;;;5017085;28;20419;-77
2022/01/08 04:17:51;;;;;;;13.25;4.57;;;7.50;99.90;;;;;;5017358;28;20030;-77
2022/01/08 04:20:20;;;;;;;18.20;5.20;;;7.50;99.90;;;;;;5017049;28;20056;-77
2022/01/08 04:22:50;;;;;;;26.27;5.18;;;7.60;99.90;;;;;;5017272;28;20468;-77
2022/01/08 04:25:22;;;;;;;13.88;4.93;;;7.60;99.90;;;;;;5017854;28;20030;-77
2022/01/08 04:27:48;;;;;;;25.60;5.53;;;7.60;99.90;;;;;;5021016;28;20026;-76
2022/01/08 04:30:14;;;;;;;14.43;5.10;;;7.60;99.90;;;;;;5020772;28;20022;-78
2022/01/08 04:32:40;;;;;;;19.92;4.70;;;7.60;99.90;;;;;;5021195;28;20033;-77
2022/01/08 04:35:06;;;;;;;15.77;4.65;;;7.70;99.90;;;;;;5020624;28;20038;-78
2022/01/08 04:37:32;;;;;;;16.02;4.18;;;7.70;99.90;;;;;;5020821;28;20022;-77
2022/01/08 04:39:58;;;;;;;15.77;4.40;;;7.70;99.90;;;;;;5018970;28;20060;-76
2022/01/08 04:42:23;;;;;;;25.67;5.43;;;7.70;99.90;;;;;;5020673;28;20078;-76
2022/01/08 04:44:49;;;;;;;20.63;4.00;;;7.70;99.90;;;;;;5020416;28;20036;-76
2022/01/08 04:47:15;;;;;;;9.90;3.72;;;7.60;99.90;;;;;;5020602;28;20105;-76
2022/01/08 04:49:41;;;;;;;20.67;3.95;;;7.60;99.90;;;;;;5020329;28;20061;-76
2022/01/08 04:52:07;;;;;;;9.20;4.10;;;7.60;99.90;;;;;;5020629;28;20398;-76
2022/01/08 04:54:33;;;;;;;6.88;3.92;;;7.60;99.90;;;;;;5020020;28;20394;-76
2022/01/08 04:56:58;;;;;;;10.55;3.85;;;7.60;99.90;;;;;;5020463;28;20482;-75
2022/01/08 04:59:24;;;;;;;14.05;4.82;;;7.60;99.90;;;;;;5019004;28;20026;-76
2022/01/08 05:01:50;;;;;;;12.95;4.75;;;7.60;99.90;;;;;;5020206;28;20029;-76
2022/01/08 05:04:16;;;;;;;14.43;5.40;;;7.60;99.90;;;;;;5018850;28;20379;-77
2022/01/08 05:06:41;;;;;;;16.23;5.78;;;7.60;99.90;;;;;;5020190;28;20552;-76
2022/01/08 05:09:07;;;;;;;18.08;4.72;;;7.60;99.90;;;;;;5020083;28;20132;-77
2022/01/08 05:11:33;;;;;;;21.80;5.28;;;7.60;99.90;;;;;;5020107;28;20018;-76
2022/01/08 05:13:58;;;;;;;14.52;5.18;;;7.60;99.90;;;;;;5019868;28;20092;-76
2022/01/08 05:16:26;;;;;;;17.70;5.07;;;7.60;99.90;;;;;;5020235;28;20470;-76
2022/01/08 05:18:54;;;;;;;24.00;5.40;;;7.70;99.90;;;;;;5019921;28;20029;-76
2022/01/08 05:23:49;;;;;;;20.88;5.05;;;7.70;99.90;;;;;;5020005;28;20036;-77
2022/01/08 05:26:15;;;;;;;14.73;5.28;;;7.70;99.90;;;;;;5019572;28;20025;-76
2022/01/08 05:28:41;;;;;;;12.27;4.95;;;7.70;99.90;;;;;;5018282;28;20501;-76
2022/01/08 05:31:07;;;;;;;13.90;4.38;;;7.70;99.90;;;;;;5019129;28;20026;-76
2022/01/08 05:33:33;;;;;;;19.70;6.30;;;7.70;99.90;;;;;;5017558;28;20040;-77
2022/01/08 05:35:59;;;;;;;27.67;5.43;;;7.80;99.90;;;;;;5019112;28;20402;-77
2022/01/08 05:38:25;;;;;;;17.08;5.53;;;7.80;99.90;;;;;;5018748;28;20033;-77
2022/01/08 05:40:50;;;;;;;18.23;5.28;;;7.80;99.90;;;;;;5019324;28;20030;-77
2022/01/08 05:43:16;;;;;;;18.48;6.15;;;7.80;99.90;;;;;;5019356;28;20072;-77
2022/01/08 05:45:42;;;;;;;17.73;4.13;;;7.80;99.90;;;;;;5019506;28;20463;-77
2022/01/08 05:48:09;;;;;;;11.93;4.13;;;7.80;99.90;;;;;;5018039;28;20030;-77
2022/01/08 05:50:34;;;;;;;18.77;5.45;;;7.80;99.90;;;;;;5019454;28;20471;-76
2022/01/08 05:53:00;;;;;;;16.35;4.05;;;7.80;99.90;;;;;;5019315;28;20056;-77
2022/01/08 05:55:26;;;;;;;25.05;5.80;;;7.80;99.90;;;;;;5019157;28;20149;-77
2022/01/08 05:57:51;;;;;;;8.02;4.07;;;7.80;99.90;;;;;;5019116;28;20061;-77
2022/01/08 06:00:18;;;;;;;13.18;5.18;;;7.80;99.90;;;;;;5017981;28;20030;-76
2022/01/08 06:02:43;;;;;;;7.93;3.97;;;7.90;99.90;;;;;;5019101;28;20026;-77
2022/01/08 06:05:09;;;;;;;14.93;4.25;;;7.80;99.90;;;;;;5019118;28;20032;-76
2022/01/08 06:07:35;;;;;;;26.58;4.72;;;7.90;99.90;;;;;;5019007;28;20053;-76
2022/01/08 06:10:02;;;;;;;12.07;4.70;;;7.90;99.90;;;;;;5017323;28;20054;-77
2022/01/08 06:12:28;;;;;;;14.43;4.40;;;7.90;99.90;;;;;;5018841;28;20108;-77
2022/01/08 06:14:54;;;;;;;10.38;5.03;;;7.90;99.90;;;;;;5018849;28;20053;-77
2022/01/08 06:17:19;;;;;;;17.77;4.20;;;7.90;99.90;;;;;;5018782;28;20034;-77
2022/01/08 06:19:45;;;;;;;20.95;6.90;;;7.90;99.90;;;;;;5018800;28;20034;-77
2022/01/08 06:22:11;;;;;;;17.65;4.40;;;7.90;99.90;;;;;;5017658;28;20120;-76
2022/01/08 06:24:37;;;;;;;18.77;5.47;;;7.90;99.90;;;;;;5018544;28;20129;-77
2022/01/08 06:27:03;;;;;;;15.15;4.20;;;7.90;99.90;;;;;;5018520;28;20053;-77
2022/01/08 06:29:29;;;;;;;13.18;4.30;;;7.90;99.90;;;;;;5017433;28;20393;-77
2022/01/08 06:31:54;;;;;;;12.60;4.15;;;7.90;99.90;;;;;;5017223;28;20053;-77
2022/01/08 06:34:21;;;;;;;16.55;4.95;;;7.90;99.90;;;;;;5017331;28;20025;-77
2022/01/08 06:36:49;;;;;;;17.77;4.20;;;8.00;99.90;;;;;;5016967;28;20164;-76
2022/01/08 06:39:16;;;;;;;23.10;5.72;;;8.00;99.90;;;;;;5016889;28;20036;-76
2022/01/08 06:41:43;;;;;;;23.83;6.45;;;8.00;99.90;;;;;;5018143;28;20028;-77
2022/01/08 06:44:08;;;;;;;19.92;4.55;;;8.00;99.90;;;;;;5018436;28;20101;-77
2022/01/08 06:46:34;;;;;;;14.52;4.97;;;8.00;99.90;;;;;;5018162;28;20113;-77
2022/01/08 06:49:00;;;;;;;11.90;4.00;;;8.00;99.90;;;;;;5018060;28;20441;-77
2022/01/08 06:51:26;;;;;;;14.88;4.63;;;8.00;99.90;;;;;;5016887;28;20026;-78
2022/01/08 06:53:52;;;;;;;15.18;3.88;;;8.00;99.90;;;;;;5018162;28;20022;-76
2022/01/08 06:56:19;;;;;;;14.57;5.07;;;8.00;99.90;;;;;;5016452;28;20026;-77
2022/01/08 06:58:45;;;;;;;13.52;4.10;;;8.00;99.90;;;;;;5016938;28;20021;-77
2022/01/08 07:01:12;;;;;;;11.40;4.35;;;8.00;99.90;;;;;;5009100;28;20462;-77
2022/01/08 07:03:38;;;;;;;15.77;3.72;;;8.00;99.90;;;;;;5016675;28;20453;-77
2022/01/08 07:06:04;;;;;;;10.75;4.25;;;8.00;99.90;;;;;;5016589;28;20134;-77
2022/01/08 07:08:30;;;;;;;11.75;3.88;;;8.00;99.90;;;;;;5017814;28;20046;-76
2022/01/08 07:10:56;;;;;;;9.07;3.58;;;8.00;99.90;;;;;;5016618;28;20028;-76
2022/01/08 07:13:22;;;;;;;20.05;5.70;;;8.00;99.90;;;;;;5017837;28;20022;-77
2022/01/08 07:15:48;;;;;;;11.18;4.28;;;7.90;99.90;;;;;;5017642;28;20092;-77
2022/01/08 07:18:14;;;;;;;12.73;5.68;;;7.90;99.90;;;;;;5017943;28;20387;-77
2022/01/08 07:20:39;;;;;;;13.48;3.80;;;7.90;99.90;;;;;;5016254;28;20026;-77
2022/01/08 07:23:05;;;;;;;14.27;4.40;;;7.90;99.90;;;;;;5018035;28;20026;-78
2022/01/08 07:25:31;;;;;;;8.43;4.10;;;7.90;99.90;;;;;;5016007;28;20037;-77
2022/01/08 07:27:57;;;;;;;9.27;4.13;;;7.90;99.90;;;;;;5017636;28;20093;-78
2022/01/08 07:30:23;;;;;;;12.10;3.95;;;7.90;99.90;;;;;;5016337;28;20033;-77
2022/01/08 07:32:51;;;;;;;10.43;4.32;;;7.90;99.90;;;;;;5017686;28;20036;-77
2022/01/08 07:35:21;;;;;;;14.13;5.22;;;7.90;99.90;;;;;;5016137;28;20037;-77
2022/01/08 07:37:49;;;;;;;13.45;4.68;;;7.90;99.90;;;;;;5016224;28;20026;-77
2022/01/08 07:40:15;;;;;;;17.30;4.40;;;7.90;99.90;;;;;;5017165;28;20398;-77
2022/01/08 07:42:41;;;;;;;11.70;3.85;;;8.00;99.90;;;;;;5016487;28;20032;-77
2022/01/08 07:45:10;;;;;;;17.33;4.18;;;8.00;99.90;;;;;;5017362;28;20022;-78
2022/01/08 07:47:36;;;;;;;14.80;5.15;;;8.00;99.90;;;;;;5017485;28;20033;-77
2022/01/08 07:50:04;;;;;;;13.68;4.05;;;8.00;99.90;;;;;;5017323;28;20541;-77
2022/01/08 07:52:30;;;;;;;11.02;4.00;;;8.00;99.90;;;;;;5017493;28;20022;-77
2022/01/08 07:54:55;;;;;;;9.52;4.07;;;8.00;99.90;;;;;;5008194;28;20084;-77
2022/01/08 07:57:21;;;;;;;8.27;3.88;;;8.00;99.90;;;;;;5017311;28;20026;-77
2022/01/08 07:59:47;;;;;;;8.85;3.28;;;8.00;99.90;;;;;;5017616;28;20508;-75
2022/01/08 08:02:13;;;;;;;14.50;3.72;;;8.00;99.90;;;;;;5021381;28;20037;-75
2022/01/08 08:04:38;;;;;;;10.80;4.22;;;8.10;99.90;;;;;;5019670;28;20488;-75
2022/01/08 08:07:04;;;;;;;12.73;3.85;;;8.00;99.90;;;;;;5020296;28;20018;-75
2022/01/08 08:09:30;;;;;;;7.88;4.00;;;8.00;99.90;;;;;;5020418;28;20058;-76
2022/01/08 08:11:56;;;;;;;10.20;4.10;;;8.00;99.90;;;;;;5021501;28;20018;-76
2022/01/08 08:14:22;;;;;;;12.68;5.65;;;8.10;99.90;;;;;;5021076;28;20521;-75
2022/01/08 08:16:47;;;;;;;9.27;3.42;;;8.00;99.90;;;;;;5019825;28;20026;-75
2022/01/08 08:19:13;;;;;;;8.93;3.50;;;8.00;99.90;;;;;;5019174;28;20116;-75
2022/01/08 08:21:39;;;;;;;11.02;4.95;;;8.00;99.90;;;;;;5052441;28;20022;-76
2022/01/08 08:24:06;;;;;;;11.45;3.60;;;8.00;99.90;;;;;;5018109;28;20041;-76
2022/01/08 08:26:33;;;;;;;6.82;4.18;;;8.00;99.90;;;;;;5051812;28;20018;-76
2022/01/08 08:28:58;;;;;;;14.77;4.05;;;7.90;99.90;;;;;;5020535;28;20025;-75
2022/01/08 08:31:25;;;;;;;13.48;5.97;;;7.90;99.90;;;;;;5052217;28;20014;-75
2022/01/08 08:33:50;;;;;;;9.55;4.28;;;7.90;99.90;;;;;;5020186;28;20028;-75
2022/01/08 08:36:16;;;;;;;13.45;4.10;;;7.90;99.90;;;;;;5020102;28;20664;-75
2022/01/08 08:38:42;;;;;;;22.27;4.63;;;7.90;99.90;;;;;;5051963;28;20030;-75
2022/01/08 08:41:10;;;;;;;9.82;4.05;;;7.90;99.90;;;;;;5020464;28;20105;-75
2022/01/08 08:43:36;;;;;;;15.18;4.65;;;7.90;99.90;;;;;;5020088;28;20030;-75
2022/01/08 08:46:02;;;;;;;12.18;4.15;;;7.90;99.90;;;;;;5019255;28;20410;-75
2022/01/08 08:48:28;;;;;;;17.70;4.78;;;7.90;99.90;;;;;;5018641;28;20056;-75
2022/01/08 08:50:54;;;;;;;15.30;4.75;;;8.00;99.90;;;;;;5020206;28;20018;-75
2022/01/08 08:53:19;;;;;;;11.82;4.03;;;8.00;99.90;;;;;;5018986;28;20026;-75
2022/01/08 08:55:46;;;;;;;14.43;4.05;;;8.00;99.90;;;;;;5020209;28;20053;-75
2022/01/08 08:58:12;;;;;;;8.38;4.78;;;8.00;99.90;;;;;;5018945;28;20478;-75
2022/01/08 09:00:37;;;;;;;12.70;4.15;;;8.00;99.90;;;;;;5020603;28;20397;-75
2022/01/08 09:03:03;;;;;;;13.32;5.13;;;8.00;99.90;;;;;;5017134;28;20030;-75
2022/01/08 09:05:29;;;;;;;8.73;3.72;;;8.00;99.90;;;;;;5038351;28;20026;-75
2022/01/08 09:07:54;;;;;;;10.38;5.03;;;8.00;99.90;;;;;;5039918;28;20052;-76
2022/01/08 09:10:25;;;;;;;15.75;5.47;;;8.10;99.90;;;;;;5038281;28;20026;-75
2022/01/08 09:12:53;;;;;;;6.65;4.03;;;8.10;99.90;;;;;;5036788;28;20056;-75
2022/01/08 09:15:24;;;;;;;10.30;4.38;;;8.10;99.90;;;;;;5018410;28;20116;-76
2022/01/08 09:17:56;;;;;;;11.13;4.75;;;8.10;99.90;;;;;;5018306;28;20029;-75
2022/01/08 09:20:22;;;;;;;9.57;4.35;;;8.10;99.90;;;;;;5018780;28;20478;-75
2022/01/08 09:22:47;;;;;;;15.05;4.50;;;8.10;99.90;;;;;;5019395;28;20108;-76
2022/01/08 09:25:13;;;;;;;11.73;4.32;;;8.10;99.90;;;;;;5019545;28;20026;-76
2022/01/08 09:27:39;;;;;;;15.13;5.18;;;8.20;99.90;;;;;;5019650;28;20057;-76
2022/01/08 09:30:06;;;;;;;11.77;3.92;;;8.20;99.90;;;;;;5019698;28;20057;-76
2022/01/08 09:32:32;;;;;;;13.25;4.32;;;8.20;99.90;;;;;;5019938;28;20041;-76
2022/01/08 09:34:58;;;;;;;8.20;4.40;;;8.20;99.90;;;;;;5019633;28;20021;-76
2022/01/08 09:37:24;;;;;;;10.10;4.28;;;8.30;99.90;;;;;;5019679;28;20037;-76
2022/01/08 09:39:50;;;;;;;87.82;35.90;;;8.30;99.90;;;;;;5017593;28;20034;-76
2022/01/08 09:42:16;;;;;;;13.38;4.43;;;8.40;99.90;;;;;;5050710;28;20406;-76
2022/01/08 09:44:44;;;;;;;11.45;4.07;;;8.40;99.90;;;;;;5019590;28;20036;-76
2022/01/08 09:47:11;;;;;;;7.60;3.60;;;8.50;99.90;;;;;;5018269;28;20140;-76
2022/01/08 09:49:38;;;;;;;9.52;3.33;;;8.60;99.90;;;;;;5019671;28;20014;-76
2022/01/08 09:52:04;;;;;;;13.75;5.28;;;8.70;99.90;;;;;;5019360;28;20072;-76
2022/01/08 09:54:31;;;;;;;13.23;4.00;;;8.80;99.90;;;;;;5019176;28;20026;-76
2022/01/08 09:56:57;;;;;;;10.77;4.32;;;8.80;99.90;;;;;;5019288;28;20030;-76
2022/01/08 09:59:24;;;;;;;5.50;3.60;;;8.80;99.90;;;;;;5019219;28;20053;-76
2022/01/08 10:01:59;;;;;;;7.03;3.50;;;8.90;99.90;;;;;;5018078;28;20025;-77
2022/01/08 10:04:36;;;;;;;7.55;3.55;;;8.90;99.90;;;;;;5017506;28;20030;-77
2022/01/08 10:07:20;;;;;;;14.82;4.28;;;8.90;99.90;;;;;;5017679;28;20052;-75
2022/01/08 10:10:12;;;;;;;7.60;3.45;;;9.00;99.90;;;;;;5017450;28;20422;-75
2022/01/08 10:12:52;;;;;;;14.25;4.47;;;9.00;99.90;;;;;;5017730;28;20030;-75
2022/01/08 10:18:36;;;;;;;10.63;4.57;;;8.90;99.90;;;;;;5014992;28;20120;-76
2022/01/08 10:21:20;;;;;;;12.93;3.97;;;9.00;99.90;;;;;;5018065;28;20030;-76
2022/01/08 10:23:52;;;;;;;13.45;3.20;;;9.10;99.90;;;;;;5016200;28;20061;-77
2022/01/08 10:26:20;;;;;;;16.10;4.45;;;9.20;99.90;;;;;;5018075;28;20123;-76
2022/01/08 10:28:56;;;;;;;12.57;4.20;;;9.20;99.90;;;;;;5017104;28;20030;-76
2022/01/08 10:31:29;;;;;;;14.48;4.63;;;9.30;99.90;;;;;;5017853;28;20022;-76
2022/01/08 10:34:19;;;;;;;9.38;3.50;;;9.20;99.90;;;;;;5011653;28;20030;-76
2022/01/08 10:36:49;;;;;;;9.88;3.85;;;9.20;99.90;;;;;;5018558;28;20048;-76
2022/01/08 10:39:20;;;;;;;9.70;3.60;;;9.10;99.90;;;;;;5016731;28;20092;-77
2022/01/08 10:41:48;;;;;;;9.82;3.70;;;9.10;99.90;;;;;;5016892;28;20563;-76
2022/01/08 10:44:22;;;;;;;10.63;4.43;;;9.10;99.90;;;;;;5018247;28;20018;-77
2022/01/08 10:46:59;;;;;;;10.65;5.45;;;9.20;99.90;;;;;;5017988;28;20026;-76
2022/01/08 10:49:31;;;;;;;16.10;4.18;;;9.20;99.90;;;;;;5017967;28;20482;-77
2022/01/08 10:51:59;;;;;;;6.78;3.70;;;9.20;99.90;;;;;;5017210;28;20030;-76
2022/01/08 10:54:27;;;;;;;9.30;3.40;;;9.20;99.90;;;;;;5017516;28;20386;-76
2022/01/08 10:57:02;;;;;;;12.48;4.82;;;9.30;99.90;;;;;;5017845;28;20510;-76
2022/01/08 10:59:29;;;;;;;14.40;3.90;;;9.30;99.90;;;;;;5016588;28;20064;-76
2022/01/08 11:01:58;;;;;;;15.73;4.70;;;9.40;99.90;;;;;;5017951;28;20104;-76
2022/01/08 11:04:41;;;;;;;9.63;2.97;;;9.50;99.90;;;;;;5016692;28;20093;-76
2022/01/08 11:07:27;;;;;;;11.05;4.03;;;9.50;99.90;;;;;;5016425;28;20475;-76
2022/01/08 11:10:00;;;;;;;7.30;3.63;;;9.50;99.90;;;;;;5013465;28;20045;-77
2022/01/08 11:12:33;;;;;;;11.07;5.07;;;9.50;99.90;;;;;;5017795;28;20026;-77
2022/01/08 11:17:49;;;;;;;6.80;3.30;;;9.60;99.90;;;;;;5017303;28;20017;-76
2022/01/08 11:20:20;;;;;;;5.57;3.40;;;9.50;99.90;;;;;;5017370;28;20436;-76
2022/01/08 11:22:52;;;;;;;8.32;4.00;;;9.50;99.90;;;;;;5016552;28;20022;-76
2022/01/08 11:25:35;;;;;;;13.27;4.65;;;9.50;99.90;;;;;;5015678;28;20188;-76
2022/01/08 11:28:12;;;;;;;14.30;4.22;;;9.60;99.90;;;;;;5015408;28;20049;-76
2022/01/08 11:30:42;;;;;;;9.57;3.65;;;9.60;99.90;;;;;;5017371;28;20481;-76
2022/01/08 11:33:18;;;;;;;10.60;4.18;;;9.80;99.90;;;;;;5016223;28;20564;-76
2022/01/08 11:35:46;;;;;;;8.75;3.42;;;9.90;99.90;;;;;;5016138;28;20088;-77
2022/01/08 11:38:14;;;;;;;14.38;3.90;;;10.10;99.90;;;;;;5017526;28;20486;-77
2022/01/08 11:40:42;;;;;;;10.18;4.18;;;10.20;99.90;;;;;;5016278;28;20045;-77
2022/01/08 11:43:11;;;;;;;14.32;5.22;;;10.20;99.90;;;;;;5017264;28;20053;-76
2022/01/08 11:45:54;;;;;;;9.80;4.63;;;10.10;99.90;;;;;;5017420;28;20061;-77
2022/01/08 11:48:25;;;;;;;19.60;6.80;;;10.00;99.90;;;;;;5017525;28;20101;-77
2022/01/08 11:50:52;;;;;;;14.57;4.32;;;9.90;99.90;;;;;;5016050;28;20125;-76
2022/01/08 11:53:21;;;;;;;6.72;3.75;;;9.80;99.90;;;;;;5015948;28;20054;-76
2022/01/08 11:55:59;;;;;;;19.83;4.68;;;9.80;99.90;;;;;;5017051;28;20466;-76
2022/01/08 11:58:36;;;;;;;13.35;5.20;;;9.70;99.90;;;;;;5017405;28;20033;-76
2022/01/08 12:01:12;;;;;;;10.10;4.60;;;9.60;99.90;;;;;;5017424;28;20069;-77
2022/01/08 12:03:42;;;;;;;10.50;4.80;;;9.40;99.90;;;;;;5017348;28;20053;-77
2022/01/08 12:06:24;;;;;;;10.60;4.43;;;9.30;99.90;;;;;;5015746;28;20037;-77
2022/01/08 12:08:57;;;;;;;17.55;5.50;;;9.20;99.90;;;;;;5015763;28;20451;-76
2022/01/08 12:11:24;;;;;;;10.13;3.30;;;9.20;99.90;;;;;;5017138;28;20022;-76
2022/01/08 12:13:50;;;;;;;7.45;3.55;;;9.20;99.90;;;;;;5016159;28;20022;-77
2022/01/08 12:16:31;;;;;;;8.15;3.20;;;9.30;99.90;;;;;;5017137;28;20033;-76
2022/01/08 12:18:57;;;;;;;4.22;3.13;;;9.30;99.90;;;;;;5015632;28;20029;-77
2022/01/08 12:21:33;;;;;;;6.40;3.17;;;9.40;99.90;;;;;;5015932;28;20029;-76
2022/01/08 12:23:59;;;;;;;7.28;3.00;;;9.40;99.90;;;;;;5015394;28;20025;-76
2022/01/08 12:26:25;;;;;;;5.30;3.28;;;9.40;99.90;;;;;;5016986;28;20391;-77
2022/01/08 12:28:59;;;;;;;7.30;3.65;;;9.50;99.90;;;;;;5016952;28;20022;-76
2022/01/08 12:31:51;;;;;;;4.25;2.78;;;9.50;99.90;;;;;;5017064;28;20419;-76
2022/01/08 12:34:30;;;;;;;5.93;2.97;;;9.50;99.90;;;;;;5015583;28;20075;-77
2022/01/08 12:37:03;;;;;;;4.95;3.15;;;9.60;99.90;;;;;;5033726;28;20033;-77
2022/01/08 12:39:50;;;;;;;3.53;2.95;;;9.60;99.90;;;;;;5034004;28;20030;-76
2022/01/08 12:42:19;;;;;;;11.32;4.75;;;9.60;99.90;;;;;;5013102;28;20037;-77
2022/01/08 12:44:56;;;;;;;11.70;5.50;;;9.70;99.90;;;;;;5014054;28;20019;-77
2022/01/08 12:47:56;;;;;;;8.40;3.85;;;9.70;99.90;;;;;;5017742;28;20102;-77
2022/01/08 12:50:34;;;;;;;8.43;3.80;;;9.70;99.90;;;;;;5051894;28;20018;-77
2022/01/08 12:53:05;;;;;;;16.65;8.88;;;9.70;99.90;;;;;;5014881;28;20490;-78
2022/01/08 12:55:50;;;;;;;5.90;4.03;;;9.60;99.90;;;;;;5014114;28;20030;-77
2022/01/08 12:58:24;;;;;;;7.43;3.70;;;9.60;99.90;;;;;;5019411;28;20461;-77
2022/01/08 13:00:56;;;;;;;4.78;3.60;;;9.60;99.90;;;;;;5019153;28;20080;-76
2022/01/08 13:03:46;;;;;;;12.52;4.28;;;9.60;99.90;;;;;;5020351;28;20026;-77
2022/01/08 13:06:12;;;;;;;6.80;3.73;;;9.60;99.90;;;;;;5018000;28;20033;-78
2022/01/08 13:08:39;;;;;;;9.20;3.40;;;9.70;99.90;;;;;;5019260;28;20045;-77
2022/01/08 13:11:08;;;;;;;4.25;3.00;;;9.70;99.90;;;;;;5019255;28;20025;-76
2022/01/08 13:13:47;;;;;;;9.95;3.75;;;9.70;99.90;;;;;;5019621;28;20394;-77
2022/01/08 13:16:18;;;;;;;8.50;3.42;;;9.70;99.90;;;;;;5020168;28;20389;-76
2022/01/08 13:19:03;;;;;;;7.60;3.92;;;9.80;99.90;;;;;;5019515;28;20025;-77
2022/01/08 13:21:44;;;;;;;8.55;4.15;;;9.80;99.90;;;;;;5014881;28;20030;-77
2022/01/08 13:24:17;;;;;;;;;;;9.80;99.90;;;;;;5051101;28;20053;-77
2022/01/08 13:26:48;;;;;;;9.30;4.93;;;9.80;99.90;;;;;;5018855;28;20301;-78
2022/01/08 13:29:24;;;;;;;;;;;9.70;99.90;;;;;;5019303;28;20101;-77